Latest Coastal Weather Observations for Flinders Island Airport

IDV60701

Issued at 12:41 am EDT Sunday 4 December 2016 (issued every 10 minutes, with the page automatically refreshed every 10 minutes)

About coastal observations | Map of coastal stations | Coastal observations for VIC | Marine services | Other Formats
Station Details ID: 099005 Name: FLINDERS ISLAND AIRPORT Lat: -40.09 Lon: 148.00 Height: 9.0 m
Data from the previous 72 hours. | See also: Recent months at Flinders Island Airport
Date/Time
EDT
Temp
°C
Wind Pressure Rain since
9am
mm
Weather Cloud Vis
km
Sea
Height
m
Swell
Dir  Spd
kts
Gust
kts
hPa Trend Height
m
Period
s
Dir
04/12:30am 5.7 ENE 7 8 1016.3 - 0.0 - - 10 - - - -
04/12:00am 6.0 ENE 7 8 1016.6 - 0.0 - - 10 - - - -
 
Date/Time
EDT
Temp
°C
Wind Pressure Rain since
9am
mm
Weather Cloud Vis
km
Sea
Height
m
Swell
Dir  Spd
kts
Gust
kts
hPa Trend Height
m
Period
s
Dir
03/11:30pm 6.7 ENE 6 7 1016.5 - 0.0 - - 10 - - - -
03/11:00pm 6.6 ENE 6 7 1016.6 - 0.0 - - 10 - - - -
03/10:30pm 7.4 ENE 6 7 1016.9 - 0.0 - - 10 - - - -
03/10:00pm 8.2 NE 5 6 1016.7 - 0.0 - - 10 - - - -
03/09:30pm 8.8 NNW 5 6 1016.6 - 0.0 - - 10 - - - -
03/09:00pm 11.7 NW 5 6 1016.2 - 0.0 - - 10 - - - -
03/08:30pm 13.0 WNW 6 8 1015.9 - 0.0 - - 10 - - - -
03/08:00pm 14.4 W 9 10 1015.8 - 0.0 - - 10 - - - -
03/07:30pm 15.2 W 9 12 1015.7 - 0.0 - - 10 - - - -
03/07:00pm 15.6 WNW 9 13 1015.4 - 0.0 - - 10 - - - -
03/06:30pm 16.1 W 10 14 1015.3 - 0.0 - - 10 - - - -
03/06:00pm 15.8 W 10 15 1015.1 - 0.0 - - 10 - - - -
03/05:30pm 16.2 W 10 15 1015.1 - 0.0 - - 10 - - - -
03/05:00pm 16.0 W 9 14 1015.2 - 0.0 - - 10 - - - -
03/04:30pm 16.4 W 10 15 1015.5 - 0.0 - - 10 - - - -
03/04:00pm 16.5 W 9 14 1015.6 - 0.0 - - 10 - - - -
03/03:30pm 16.1 WNW 9 14 1015.7 - 0.0 - - 10 - - - -
03/03:00pm 16.7 WSW 11 14 1015.8 - 0.0 - - 10 - - - -
03/02:30pm 16.2 W 11 15 1016.0 - 0.0 - Partly cloudy 10 - - - -
03/02:00pm 16.6 W 13 17 1016.2 - 0.0 - - 10 - - - -
03/01:30pm 16.2 WNW 11 16 1016.2 - 0.0 - Partly cloudy 10 - - - -
03/01:00pm 15.9 W 10 16 1016.2 - 0.0 - - 10 - - - -
03/12:30pm 16.5 W 9 14 1016.3 - 0.0 - Partly cloudy 10 - - - -
03/12:00pm 15.3 WSW 8 12 1016.3 - 0.0 - Mostly clear 10 - - - -
03/11:30am 15.7 WSW 9 13 1016.3 - 0.0 - Partly cloudy 10 - - - -
03/11:00am 15.3 WSW 9 14 1016.4 - 0.0 - - 10 - - - -
03/10:30am 15.4 W 11 14 1016.4 - 0.0 - - 10 - - - -
03/10:00am 15.6 WSW 10 14 1016.2 - 0.0 - - 10 - - - -
03/09:30am 15.3 WSW 10 15 1016.1 - 0.0 - Partly cloudy 10 - - - -
03/09:00am 14.9 WSW 10 13 1015.9 - 0.0 - - 10 - - - -
03/08:30am 15.3 WSW 9 12 1015.7 - 0.0 - - 10 - - - -
03/08:00am 14.2 WSW 11 15 1015.3 - 0.0 - - 10 - - - -
03/07:30am 13.7 WSW 13 15 1015.0 - 0.0 - - 10 - - - -
03/07:00am 13.7 WSW 14 16 1014.8 - 0.0 - - 10 - - - -
03/06:30am 12.8 WSW 15 17 1014.6 - 0.0 - - 10 - - - -
03/06:00am 12.4 WSW 15 20 1014.2 - 0.0 - - 10 - - - -
03/05:30am 12.5 WSW 15 19 1013.8 - 0.0 - - 10 - - - -
03/05:00am 12.6 WSW 17 20 1013.8 - 0.0 - - 10 - - - -
03/04:30am 12.8 WSW 18 22 1013.7 - 0.0 - - 10 - - - -
03/04:00am 12.9 WSW 18 20 1013.7 - 0.0 - - 10 - - - -
03/03:30am 13.1 WSW 19 23 1013.7 - 0.0 - Partly cloudy 10 - - - -
03/03:00am 13.8 W 19 23 1013.8 - 0.0 - Mostly cloudy 10 - - - -
03/02:30am 13.6 W 20 24 1014.0 - 0.0 - Partly cloudy 10 - - - -
03/02:00am 13.5 WSW 19 23 1013.9 - 0.0 - Partly cloudy 10 - - - -
03/01:30am 13.6 WSW 20 26 1013.9 - 0.0 - - 10 - - - -
03/01:00am 13.6 WSW 23 27 1013.9 - 0.0 - - 10 - - - -
03/12:30am 13.6 W 22 28 1014.0 - 0.0 - - 10 - - - -
03/12:00am 13.7 W 23 27 1014.1 - 0.0 - - 10 - - - -
 
Date/Time
EDT
Temp
°C
Wind Pressure Rain since
9am
mm
Weather Cloud Vis
km
Sea
Height
m
Swell
Dir  Spd
kts
Gust
kts
hPa Trend Height
m
Period
s
Dir
02/11:30pm 13.7 W 23 30 1013.9 - 0.0 - - 10 - - - -
02/11:00pm 13.7 W 22 28 1013.8 - 0.0 - - 10 - - - -
02/10:30pm 13.8 W 26 32 1013.5 - 0.0 - - 10 - - - -
02/10:00pm 13.8 W 23 31 1013.3 - 0.0 - - 10 - - - -
02/09:30pm 14.0 W 25 31 1012.9 - 0.0 - - 10 - - - -
02/09:00pm 14.0 W 24 30 1012.6 - 0.0 - - 10 - - - -
02/08:30pm 14.1 W 25 30 1012.3 - 0.0 - - 10 - - - -
02/08:00pm 14.3 W 25 31 1011.9 - 0.0 - - 10 - - - -
02/07:30pm 14.8 W 25 31 1011.7 - 0.0 - - 10 - - - -
02/07:00pm 15.2 W 24 30 1011.4 - 0.0 - - 10 - - - -
02/06:30pm 15.3 W 26 31 1011.2 - 0.0 - - 10 - - - -
02/06:00pm 16.0 W 25 31 1011.0 - 0.0 - - 10 - - - -
02/05:30pm 16.5 W 23 30 1010.8 - 0.0 - - 10 - - - -
02/05:00pm 16.4 W 23 30 1010.6 - 0.0 - - 10 - - - -
02/04:30pm 17.0 W 26 29 1010.4 - 0.0 - - 10 - - - -
02/04:00pm 17.1 W 24 29 1010.3 - 0.0 - - 10 - - - -
02/03:30pm 17.3 W 23 28 1010.2 - 0.0 - - 10 - - - -
02/03:00pm 17.1 W 18 25 1010.1 - 0.0 - Partly cloudy 10 - - - -
02/02:30pm 17.6 W 21 26 1009.9 - 0.0 - Partly cloudy 10 - - - -
02/02:00pm 17.3 W 18 24 1009.8 - 0.0 - Partly cloudy 10 - - - -
02/01:30pm 17.4 W 19 23 1009.6 - 0.0 - Partly cloudy 10 - - - -
02/01:00pm 16.9 W 21 26 1009.4 - 0.0 - Partly cloudy 10 - - - -
02/12:30pm 15.7 W 23 30 1009.3 - 0.0 - Partly cloudy 9 - - - -
02/12:00pm 18.1 W 20 25 1009.0 - 0.0 - - 10 - - - -
02/11:30am 17.5 WNW 18 22 1008.8 - 0.0 - - 10 - - - -
02/11:00am 17.2 WNW 18 21 1008.5 - 0.0 - - 10 - - - -
02/10:30am 17.1 W 18 23 1008.5 - 0.0 - Partly cloudy 10 - - - -
02/10:00am 16.2 W 18 22 1008.4 - 0.0 - Partly cloudy 10 - - - -
02/09:30am 15.8 W 18 23 1007.9 - 0.0 - Cloudy 10 - - - -
02/09:00am 15.4 W 16 21 1008.0 - 0.0 - Cloudy 10 - - - -
02/08:30am 15.4 W 15 19 1007.9 - 0.0 - Partly cloudy 10 - - - -
02/08:00am 15.7 W 17 20 1007.7 - 0.0 - Partly cloudy 10 - - - -
02/07:30am 15.0 W 15 20 1007.5 - 0.0 - Partly cloudy 10 - - - -
02/07:00am 14.7 W 16 21 1006.9 - 0.0 - Partly cloudy 10 - - - -
02/06:30am 14.7 W 15 19 1006.6 - 0.0 - Partly cloudy 10 - - - -
02/06:00am 14.6 WNW 16 22 1006.3 - 0.0 - Cloudy 10 - - - -
02/05:53am 14.5 WNW 17 22 1006.4 - 0.0 - Partly cloudy 10 - - - -
02/05:30am 14.4 WNW 15 18 1006.1 - 0.0 - Partly cloudy 10 - - - -
02/05:00am 14.1 WNW 14 18 1005.8 - 0.0 - Partly cloudy 10 - - - -
02/04:30am 14.0 WNW 12 16 1005.3 - 0.0 - Partly cloudy 10 - - - -
02/04:00am 13.8 WNW 11 16 1005.2 - 0.0 - Partly cloudy 10 - - - -
02/03:30am 13.5 NW 8 13 1005.2 - 0.0 - Partly cloudy 10 - - - -
02/03:11am 13.3 NW 7 9 1005.5 - 0.0 - Partly cloudy 10 - - - -
02/03:00am 13.2 NW 8 10 1005.4 - 0.0 - Partly cloudy 10 - - - -
02/02:30am 13.0 NW 6 8 1005.4 - 0.0 - - 10 - - - -
02/02:00am 13.9 WNW 9 12 1005.6 - 0.0 - - 10 - - - -
02/01:30am 14.3 WNW 11 15 1005.9 - 0.0 - Partly cloudy 10 - - - -
02/01:00am 14.7 WNW 12 16 1006.0 - 0.0 - Partly cloudy 10 - - - -
02/12:44am 14.3 WNW 11 15 1006.0 - 0.0 - Partly cloudy 10 - - - -
02/12:30am 14.6 WNW 8 11 1005.9 - 0.0 - Partly cloudy 10 - - - -
02/12:00am 14.9 WNW 9 12 1006.1 - 0.0 - Cloudy 10 - - - -
 
Date/Time
EDT
Temp
°C
Wind Pressure Rain since
9am
mm
Weather Cloud Vis
km
Sea
Height
m
Swell
Dir  Spd
kts
Gust
kts
hPa Trend Height
m
Period
s
Dir
01/11:30pm 15.4 W 10 14 1006.0 - 0.0 - Cloudy 10 - - - -
01/11:00pm 15.4 W 11 15 1006.0 - 0.0 - Cloudy 10 - - - -
01/10:30pm 15.5 WNW 11 15 1006.2 - 0.0 - Cloudy 10 - - - -
01/10:00pm 15.5 WNW 9 11 1006.1 - 0.0 - Cloudy 10 - - - -
01/09:30pm 15.5 WNW 9 12 1006.0 - 0.0 - Cloudy 10 - - - -
01/09:00pm 15.8 WNW 9 12 1005.8 - 0.0 - Cloudy 10 - - - -
01/08:30pm 15.7 WNW 10 13 1005.4 - 0.0 - Cloudy 10 - - - -
01/08:00pm 16.1 WNW 10 14 1005.5 - 0.0 - Cloudy 10 - - - -
01/07:30pm 16.6 WNW 8 10 1004.8 - 0.0 - Cloudy 10 - - - -
01/07:00pm 17.0 WNW 8 11 1004.8 - 0.0 - Cloudy 10 - - - -
01/06:30pm 17.2 W 11 15 1004.9 - 0.0 - Cloudy 10 - - - -
01/06:00pm 17.1 W 11 14 1004.7 - 0.0 - Cloudy 10 - - - -
01/05:30pm 17.8 W 12 15 1004.7 - 0.0 - Partly cloudy 10 - - - -
01/05:00pm 17.9 W 13 16 1004.9 - 0.0 - Cloudy 10 - - - -
01/04:30pm 18.8 W 9 13 1004.7 - 0.0 - Partly cloudy 10 - - - -
01/04:28pm 18.7 W 9 13 1004.7 - 0.0 - Partly cloudy 10 - - - -
01/04:00pm 18.9 W 8 10 1004.8 - 0.0 - Cloudy 10 - - - -
01/03:30pm 18.4 W 9 12 1005.2 - 0.0 - Cloudy 10 - - - -
01/03:00pm 18.6 W 9 11 1005.3 - 0.0 - Cloudy 10 - - - -
01/02:30pm 18.5 W 10 13 1005.4 - 0.0 - Partly cloudy 10 - - - -
01/02:00pm 18.4 WNW 11 14 1005.4 - 0.0 - Cloudy 10 - - - -
01/01:30pm 19.2 WNW 13 16 1005.5 - 0.0 - Cloudy 10 - - - -
01/01:28pm 19.2 WNW 13 15 1005.5 - 0.0 - Cloudy 10 - - - -
01/01:00pm 19.4 NW 8 13 1005.3 - 0.0 - Partly cloudy 10 - - - -
01/12:54pm 19.5 N 7 8 1005.4 - 0.0 - Partly cloudy 10 - - - -
01/12:30pm 21.5 NNE 9 12 1005.6 - 0.0 - Partly cloudy 10 - - - -
01/12:10pm 20.3 NE 8 11 1005.4 - 0.0 - Cloudy 10 - - - -
01/12:00pm 20.3 NE 7 13 1005.5 - 0.0 - Mostly cloudy 10 - - - -
01/11:30am 20.4 NNE 13 16 1005.6 - 0.0 - Partly cloudy 10 - - - -
01/11:16am 20.3 NE 10 13 1005.7 - 0.0 - Partly cloudy 10 - - - -
01/11:00am 19.8 NNE 11 15 1005.7 - 0.0 - Partly cloudy 10 - - - -
01/10:30am 20.5 NE 13 16 1005.9 - 0.0 - Partly cloudy 10 - - - -
01/10:25am 20.3 ENE 12 17 1005.9 - 0.0 - Partly cloudy 10 - - - -
01/10:00am 19.6 ENE 13 19 1006.1 - 0.0 - Partly cloudy 10 - - - -
01/09:30am 19.8 NE 12 18 1006.0 - 0.0 - Partly cloudy 10 - - - -
01/09:00am 19.4 ENE 14 19 1006.0 - 0.2 - Cloudy 10 - - - -
01/08:30am 18.7 ENE 13 16 1006.1 - 0.2 - Partly cloudy 10 - - - -
01/08:00am 17.9 E 8 11 1006.2 - 0.2 - Partly cloudy 10 - - - -
01/07:30am 17.2 E 11 17 1006.0 - 0.2 - Partly cloudy 10 - - - -
01/07:00am 16.9 E 10 15 1006.0 - 0.2 - Cloudy 10 - - - -
01/06:30am 16.7 E 10 15 1005.9 - 0.2 - Partly cloudy 6 - - - -
01/06:27am 16.7 E 10 15 1006.0 - 0.2 - Partly cloudy 6 - - - -
01/06:05am 16.7 E 10 15 1006.2 - 0.2 - Cloudy 5 - - - -
01/06:00am 16.7 E 9 13 1006.2 - 0.2 Recent precip. Cloudy 6 - - - -
01/05:56am 16.7 E 10 15 1006.3 - 0.2 - Cloudy 6 - - - -
01/05:30am 16.6 E 10 15 1006.6 - 0.0 - Cloudy 3 - - - -
01/05:08am 16.7 ENE 11 16 1006.7 - 0.0 - Cloudy 5 - - - -
01/05:00am 16.7 E 11 16 1006.6 - 0.0 - Cloudy 7 - - - -
01/04:42am 16.8 ENE 12 19 1006.7 - 0.0 - Cloudy 7 - - - -
01/04:30am 16.7 E 12 16 1006.7 - 0.0 - Partly cloudy 5 - - - -
01/04:27am 16.7 ENE 12 16 1006.7 - 0.0 - Cloudy 5 - - - -
01/04:00am 16.8 ENE 14 19 1006.8 - 0.0 - Cloudy 8 - - - -
01/03:30am 17.0 E 9 16 1007.0 - 0.0 - Cloudy 10 - - - -
01/03:00am 16.9 E 12 18 1007.3 - 0.0 - Cloudy 10 - - - -
01/02:30am 16.9 E 10 15 1007.5 - 0.0 - Cloudy 10 - - - -
01/02:00am 17.0 E 10 15 1008.1 - 0.0 - Cloudy 10 - - - -
01/01:30am 17.1 E 10 17 1008.4 - 0.0 - Partly cloudy 10 - - - -
01/01:19am 17.1 E 10 15 1008.4 - 0.0 - Partly cloudy 10 - - - -
01/01:00am 17.0 E 10 20 1008.4 - 0.0 - Partly cloudy 10 - - - -

Other Formats:

Comma delimited format used in spreadsheet applications
http://www.bom.gov.au/fwo/IDV60701/IDV60701.94980.axf

JavaScript Object Notation format (JSON) in row-major order
http://www.bom.gov.au/fwo/IDV60701/IDV60701.94980.json